Time;durP1;ratioP1;P1;durP2;ratioP2;P2;SDS_P1;SDS_P2;PMS_P1;PMS_P2;Temp;Humidity;BMP_temperature;BMP_pressure;BME280_temperature;BME280_humidity;BME280_pressure;Samples;Min_cycle;Max_cycle;Signal;HPM_P1;HPM_P2
2021/10/03 00:03:10;;;;;;;1.73;1.00;;;17.70;74.10;;;;;;10497631;28;20028;-60
2021/10/03 00:08:11;;;;;;;1.52;1.00;;;17.70;73.90;;;;;;10498764;28;20416;-60
2021/10/03 00:13:12;;;;;;;2.08;1.13;;;17.70;74.00;;;;;;10480446;28;20058;-60
2021/10/03 00:18:13;;;;;;;2.15;1.05;;;17.70;73.90;;;;;;10497562;28;20034;-60
2021/10/03 00:23:14;;;;;;;1.77;1.10;;;17.70;73.90;;;;;;10497371;28;20036;-60
2021/10/03 00:28:15;;;;;;;3.17;1.25;;;17.70;74.00;;;;;;10498149;28;20036;-60
2021/10/03 00:33:16;;;;;;;2.10;1.08;;;17.70;74.60;;;;;;10462684;28;1047960;-60
2021/10/03 00:38:17;;;;;;;1.85;1.10;;;17.70;74.00;;;;;;10498908;28;20052;-60
2021/10/03 00:43:19;;;;;;;1.98;1.05;;;17.70;74.00;;;;;;10499601;28;20028;-60
2021/10/03 00:48:19;;;;;;;1.50;0.80;;;17.70;74.00;;;;;;10502072;28;20445;-60
2021/10/03 00:53:20;;;;;;;1.70;0.95;;;17.70;74.00;;;;;;10506576;28;20031;-60
2021/10/03 00:58:22;;;;;;;1.60;0.80;;;17.70;74.00;;;;;;10497219;28;20111;-60
2021/10/03 01:03:23;;;;;;;2.45;0.98;;;17.70;74.00;;;;;;10497445;28;20067;-60
2021/10/03 01:08:23;;;;;;;1.13;0.70;;;17.70;74.10;;;;;;10480996;28;20508;-60
2021/10/03 01:13:25;;;;;;;1.67;1.00;;;17.70;74.10;;;;;;10497572;28;20499;-60
2021/10/03 01:18:26;;;;;;;1.92;0.90;;;17.70;74.00;;;;;;10480770;28;20037;-60
2021/10/03 01:23:27;;;;;;;1.95;0.90;;;17.70;74.00;;;;;;10497143;28;20031;-60
2021/10/03 01:28:28;;;;;;;1.00;0.70;;;17.70;73.90;;;;;;10496736;28;20491;-60
2021/10/03 01:33:28;;;;;;;1.20;0.60;;;17.70;73.70;;;;;;10496620;28;20049;-60
2021/10/03 01:38:29;;;;;;;1.35;1.02;;;17.70;74.00;;;;;;10496841;28;20032;-60
2021/10/03 01:43:30;;;;;;;1.40;0.85;;;17.70;74.10;;;;;;10496016;28;20036;-60
2021/10/03 01:48:31;;;;;;;1.25;0.80;;;17.70;73.80;;;;;;10501138;28;20043;-60
2021/10/03 01:53:46;;;;;;;1.58;0.98;;;17.70;74.00;;;;;;10503269;28;20056;-60
2021/10/03 01:59:01;;;;;;;1.02;0.80;;;17.60;73.90;;;;;;10496057;28;20111;-61
2021/10/03 02:04:06;;;;;;;1.40;1.00;;;17.70;73.90;;;;;;10495758;28;20404;-61
2021/10/03 02:09:08;;;;;;;1.15;0.70;;;17.70;73.80;;;;;;10495300;28;20029;-61
2021/10/03 02:14:11;;;;;;;1.85;0.80;;;17.70;74.00;;;;;;10495416;28;20025;-60
2021/10/03 02:19:12;;;;;;;1.95;0.80;;;17.70;73.80;;;;;;10495454;28;20398;-60
2021/10/03 02:24:15;;;;;;;1.30;0.75;;;17.70;73.90;;;;;;10495402;28;20035;-61
2021/10/03 02:29:15;;;;;;;0.93;0.70;;;17.70;74.00;;;;;;10494989;28;20036;-61
2021/10/03 02:34:17;;;;;;;1.20;0.70;;;17.60;73.90;;;;;;10495956;28;20591;-60
2021/10/03 02:39:18;;;;;;;1.02;0.70;;;17.70;74.00;;;;;;10494873;28;20113;-61
2021/10/03 02:44:19;;;;;;;1.85;0.70;;;17.60;73.80;;;;;;10494984;28;20063;-61
2021/10/03 02:49:20;;;;;;;1.83;0.70;;;17.70;73.80;;;;;;10497269;28;20036;-61
2021/10/03 02:54:21;;;;;;;1.45;0.90;;;17.70;73.80;;;;;;10477996;28;20025;-61
2021/10/03 02:59:23;;;;;;;2.08;0.50;;;17.70;73.70;;;;;;10494354;28;20032;-62
2021/10/03 03:04:24;;;;;;;0.82;0.52;;;17.70;73.80;;;;;;10494642;28;20385;-61
2021/10/03 03:09:25;;;;;;;0.95;0.60;;;17.60;73.90;;;;;;10477621;28;20751;-61
2021/10/03 03:14:26;;;;;;;1.13;0.60;;;17.60;73.90;;;;;;10495612;28;20044;-61
2021/10/03 03:19:27;;;;;;;0.80;0.40;;;17.60;73.90;;;;;;10495638;28;20515;-61
2021/10/03 03:24:27;;;;;;;1.95;0.70;;;17.70;74.00;;;;;;10501975;28;20107;-61
2021/10/03 03:29:28;;;;;;;1.02;0.50;;;17.70;74.00;;;;;;10502352;28;20041;-61
2021/10/03 03:34:30;;;;;;;1.65;0.70;;;17.70;74.10;;;;;;10501132;28;20041;-61
2021/10/03 03:39:31;;;;;;;0.95;0.60;;;17.70;74.00;;;;;;10484310;28;20040;-61
2021/10/03 03:44:32;;;;;;;1.02;0.65;;;17.70;73.90;;;;;;10501350;28;20025;-61
2021/10/03 03:49:33;;;;;;;1.65;0.68;;;17.60;73.90;;;;;;10502431;28;20090;-60
2021/10/03 03:54:34;;;;;;;1.02;0.60;;;17.70;74.10;;;;;;10500990;28;20082;-60
2021/10/03 03:59:34;;;;;;;1.15;0.63;;;17.60;74.00;;;;;;10500773;28;20032;-60
2021/10/03 04:04:35;;;;;;;1.20;0.77;;;17.70;73.80;;;;;;10470075;28;20591;-61
2021/10/03 04:09:36;;;;;;;1.52;0.73;;;17.60;73.80;;;;;;10500165;28;20043;-61
2021/10/03 04:14:38;;;;;;;1.48;0.80;;;17.60;73.80;;;;;;10501173;28;20060;-60
2021/10/03 04:19:39;;;;;;;1.15;0.65;;;17.60;73.80;;;;;;10500649;28;20425;-61
2021/10/03 04:24:40;;;;;;;1.13;0.60;;;17.60;73.90;;;;;;10499440;28;20104;-61
2021/10/03 04:29:40;;;;;;;0.95;0.50;;;17.60;73.90;;;;;;10498489;28;20036;-61
2021/10/03 04:34:41;;;;;;;0.85;0.60;;;17.60;73.90;;;;;;10498028;28;20072;-61
2021/10/03 04:39:42;;;;;;;1.50;0.60;;;17.60;73.90;;;;;;10498635;28;20455;-61
2021/10/03 04:44:43;;;;;;;1.35;0.70;;;17.60;73.90;;;;;;10496824;28;20396;-61
2021/10/03 04:49:43;;;;;;;2.58;0.60;;;17.60;73.90;;;;;;10496993;28;20056;-62
2021/10/03 04:54:45;;;;;;;1.08;0.55;;;17.60;74.00;;;;;;10498749;28;20526;-60
2021/10/03 04:59:46;;;;;;;2.72;0.82;;;17.60;74.00;;;;;;10497008;28;20484;-61
2021/10/03 05:04:46;;;;;;;0.75;0.40;;;17.60;74.00;;;;;;10496281;28;20028;-61
2021/10/03 05:09:47;;;;;;;0.95;0.55;;;17.60;74.00;;;;;;10498747;28;20481;-61
2021/10/03 05:14:48;;;;;;;0.80;0.50;;;17.60;74.00;;;;;;10497778;28;20078;-61
2021/10/03 05:19:48;;;;;;;2.47;0.90;;;17.60;74.00;;;;;;10495157;28;20117;-61
2021/10/03 05:24:49;;;;;;;1.17;0.68;;;17.60;74.00;;;;;;10479716;28;20063;-62
2021/10/03 05:29:50;;;;;;;1.48;0.70;;;17.60;73.90;;;;;;10497200;28;20113;-62
2021/10/03 05:34:50;;;;;;;0.95;0.50;;;17.60;74.00;;;;;;10479340;28;20045;-62
2021/10/03 05:39:51;;;;;;;0.68;0.50;;;17.60;73.90;;;;;;10496304;28;20067;-62
2021/10/03 05:44:52;;;;;;;2.85;0.82;;;17.60;74.30;;;;;;10496305;28;20400;-61
2021/10/03 05:49:52;;;;;;;3.15;0.63;;;17.80;74.80;;;;;;10508565;28;20028;-61
2021/10/03 05:54:53;;;;;;;3.70;0.98;;;17.90;74.40;;;;;;10479386;28;20032;-63
2021/10/03 05:59:54;;;;;;;6.43;0.90;;;17.90;74.80;;;;;;10497270;28;20513;-62
2021/10/03 06:04:54;;;;;;;4.15;0.80;;;17.90;74.90;;;;;;10465530;28;20036;-61
2021/10/03 06:09:55;;;;;;;3.05;0.70;;;17.90;75.00;;;;;;10494821;28;20029;-63
2021/10/03 06:14:56;;;;;;;3.55;0.77;;;17.90;74.70;;;;;;10494708;28;20373;-64
2021/10/03 06:19:56;;;;;;;8.13;1.00;;;17.90;74.80;;;;;;10487792;28;20079;-64
2021/10/03 06:24:57;;;;;;;7.13;1.17;;;17.90;75.10;;;;;;10484815;28;20040;-64
2021/10/03 06:29:58;;;;;;;3.90;0.95;;;17.90;75.20;;;;;;10491367;28;20854;-64
2021/10/03 06:34:59;;;;;;;25.40;3.15;;;18.00;74.90;;;;;;10470759;28;20053;-61
2021/10/03 06:40:00;;;;;;;31.77;3.17;;;18.00;74.70;;;;;;10494252;28;20055;-62
2021/10/03 06:45:01;;;;;;;24.52;3.55;;;18.00;74.90;;;;;;10474937;28;20115;-61
2021/10/03 06:50:02;;;;;;;29.75;4.70;;;17.90;74.90;;;;;;10495547;28;20036;-60
2021/10/03 06:55:04;;;;;;;25.23;3.00;;;17.90;75.20;;;;;;10498133;28;20028;-62
2021/10/03 07:00:08;;;;;;;9.23;2.05;;;17.90;75.30;;;;;;10501562;28;20032;-62
2021/10/03 07:05:09;;;;;;;18.83;2.10;;;17.90;75.50;;;;;;10501657;28;20043;-59
2021/10/03 07:10:09;;;;;;;11.07;2.50;;;17.90;76.10;;;;;;10479012;28;20036;-59
2021/10/03 07:15:10;;;;;;;13.75;2.35;;;17.90;75.90;;;;;;10501532;28;20032;-60
2021/10/03 07:20:11;;;;;;;14.18;2.70;;;17.80;76.00;;;;;;10499114;28;20046;-60
2021/10/03 07:25:12;;;;;;;11.63;2.30;;;17.80;76.00;;;;;;10497108;28;20655;-60
2021/10/03 07:30:12;;;;;;;8.35;1.85;;;17.80;75.90;;;;;;10497576;28;20388;-60
2021/10/03 07:35:13;;;;;;;11.68;1.70;;;17.80;76.00;;;;;;10481761;28;20425;-60
2021/10/03 07:40:15;;;;;;;16.00;1.70;;;17.70;75.60;;;;;;10502642;28;20067;-59
2021/10/03 07:45:16;;;;;;;9.88;1.90;;;17.70;75.50;;;;;;10501098;28;20094;-59
2021/10/03 07:50:16;;;;;;;6.60;1.63;;;17.70;75.30;;;;;;10512055;28;20358;-59
2021/10/03 07:55:17;;;;;;;10.57;2.63;;;17.70;75.40;;;;;;10500246;28;20174;-59
2021/10/03 08:00:18;;;;;;;9.88;1.77;;;17.70;75.30;;;;;;10500889;28;20449;-59
2021/10/03 08:05:19;;;;;;;5.68;1.60;;;17.70;75.20;;;;;;10487686;28;20125;-59
2021/10/03 08:10:20;;;;;;;4.95;1.73;;;17.70;75.20;;;;;;10501342;28;20055;-59
2021/10/03 08:15:20;;;;;;;8.90;2.55;;;17.70;75.10;;;;;;10500268;28;20032;-59
2021/10/03 08:20:24;;;;;;;6.40;1.30;;;17.70;75.10;;;;;;10500963;28;20040;-60
2021/10/03 08:25:25;;;;;;;4.20;1.20;;;17.70;75.20;;;;;;10496622;28;20033;-56
2021/10/03 08:30:25;;;;;;;5.88;1.17;;;17.70;75.30;;;;;;10491887;28;20067;-64
2021/10/03 08:35:26;;;;;;;9.10;1.95;;;17.80;76.80;;;;;;10494133;28;20032;-60
2021/10/03 08:40:27;;;;;;;16.23;2.25;;;17.90;76.60;;;;;;10498295;28;20036;-60
2021/10/03 08:45:28;;;;;;;12.60;2.17;;;18.00;76.60;;;;;;10498426;28;20024;-60
2021/10/03 08:50:28;;;;;;;5.05;1.67;;;18.00;76.30;;;;;;10496933;28;20081;-60
2021/10/03 08:55:29;;;;;;;8.48;1.63;;;18.00;76.20;;;;;;10499496;28;20028;-61
2021/10/03 09:00:30;;;;;;;9.95;1.80;;;17.90;76.50;;;;;;10497783;28;20044;-60
2021/10/03 09:05:53;;;;;;;8.10;2.20;;;17.90;76.60;;;;;;10498589;28;20028;-60
2021/10/03 09:11:06;;;;;;;8.60;1.45;;;18.00;76.60;;;;;;10492847;28;20469;-61
2021/10/03 09:16:29;;;;;;;9.88;1.90;;;18.00;76.60;;;;;;10497846;28;20094;-62
2021/10/03 09:21:30;;;;;;;14.48;1.80;;;18.00;76.60;;;;;;10496194;28;20055;-60
2021/10/03 09:26:33;;;;;;;8.48;1.25;;;18.00;76.70;;;;;;10496679;28;20047;-61
2021/10/03 09:31:34;;;;;;;9.35;2.38;;;18.00;76.70;;;;;;10478280;28;20037;-62
2021/10/03 09:36:35;;;;;;;11.80;1.70;;;18.00;76.70;;;;;;10495593;28;20056;-58
2021/10/03 09:41:43;;;;;;;15.15;1.90;;;18.20;76.70;;;;;;10496685;28;20107;-58
2021/10/03 09:46:49;;;;;;;9.55;1.42;;;18.20;76.80;;;;;;10496028;28;20453;-60
2021/10/03 09:51:50;;;;;;;12.88;1.70;;;18.20;76.60;;;;;;10496812;28;20028;-59
2021/10/03 09:56:52;;;;;;;9.13;1.65;;;18.20;76.60;;;;;;10496496;28;20115;-58
2021/10/03 10:01:53;;;;;;;11.77;2.28;;;18.20;76.60;;;;;;10495979;28;20064;-57
2021/10/03 10:06:54;;;;;;;10.10;1.70;;;18.10;76.70;;;;;;10496912;28;20032;-58
2021/10/03 10:12:08;;;;;;;14.05;2.00;;;18.20;76.80;;;;;;10495025;28;20067;-58
2021/10/03 10:17:36;;;;;;;15.85;2.75;;;18.20;76.60;;;;;;10492461;28;20090;-58
2021/10/03 10:22:37;;;;;;;8.95;1.67;;;18.30;76.40;;;;;;10495217;28;20151;-61
2021/10/03 10:27:37;;;;;;;9.05;1.50;;;18.20;76.30;;;;;;10494937;28;20029;-60
2021/10/03 10:32:56;;;;;;;7.05;2.25;;;18.10;76.40;;;;;;10501367;28;20049;-60
2021/10/03 10:37:57;;;;;;;7.70;1.80;;;18.00;76.50;;;;;;10502527;28;20043;-60
2021/10/03 10:43:03;;;;;;;8.18;1.85;;;18.00;76.60;;;;;;10490556;28;20036;-60
2021/10/03 10:48:10;;;;;;;10.00;1.58;;;17.90;76.60;;;;;;10506542;28;20036;-60
2021/10/03 10:53:26;;;;;;;5.88;1.83;;;17.90;76.60;;;;;;10514550;28;20044;-60
2021/10/03 10:58:27;;;;;;;7.55;1.70;;;17.90;76.60;;;;;;10502931;28;20354;-60
2021/10/03 11:03:43;;;;;;;6.30;1.70;;;17.90;76.60;;;;;;10494282;28;20041;-60
2021/10/03 11:08:58;;;;;;;7.20;2.03;;;17.90;76.60;;;;;;10502295;28;20374;-61
2021/10/03 11:14:06;;;;;;;4.03;1.17;;;17.90;76.60;;;;;;10503794;28;20036;-60
2021/10/03 11:19:14;;;;;;;6.30;1.50;;;17.90;76.60;;;;;;10503645;28;20033;-60
2021/10/03 11:24:35;;;;;;;3.17;1.13;;;17.90;76.40;;;;;;10503368;28;20397;-60
2021/10/03 11:29:49;;;;;;;4.20;1.13;;;17.90;76.40;;;;;;10501884;28;20044;-61
2021/10/03 11:35:02;;;;;;;7.72;1.17;;;17.80;76.40;;;;;;10501442;28;20170;-60
2021/10/03 11:40:34;;;;;;;7.80;1.52;;;17.80;76.30;;;;;;10500776;28;20036;-61
2021/10/03 11:45:35;;;;;;;6.75;1.15;;;17.80;76.20;;;;;;10491572;28;20052;-60
2021/10/03 11:50:42;;;;;;;3.83;0.95;;;17.80;76.20;;;;;;10513919;28;20036;-60
2021/10/03 11:55:45;;;;;;;3.55;1.10;;;17.80;76.10;;;;;;10502437;28;20028;-60
2021/10/03 12:00:58;;;;;;;4.38;1.05;;;17.80;76.10;;;;;;10501341;28;20361;-60
2021/10/03 12:06:16;;;;;;;5.35;1.25;;;17.80;76.10;;;;;;10500520;28;20064;-60
2021/10/03 12:11:16;;;;;;;4.93;1.30;;;17.80;76.20;;;;;;10485758;28;20036;-60
2021/10/03 12:16:17;;;;;;;2.92;1.17;;;17.80;76.10;;;;;;10483190;28;20074;-60
2021/10/03 12:21:32;;;;;;;4.35;1.20;;;17.80;76.10;;;;;;10481470;28;20119;-61
2021/10/03 12:26:48;;;;;;;3.92;1.45;;;17.80;76.10;;;;;;10499435;28;20036;-60
2021/10/03 12:32:03;;;;;;;5.28;1.50;;;17.80;76.10;;;;;;10500960;28;20055;-60
2021/10/03 12:37:08;;;;;;;3.00;0.90;;;17.80;76.10;;;;;;10500372;28;20402;-60
2021/10/03 12:42:19;;;;;;;2.78;0.88;;;17.80;76.20;;;;;;10494003;28;20046;-60
2021/10/03 12:47:21;;;;;;;2.85;1.23;;;17.80;76.00;;;;;;10481334;28;20082;-60
2021/10/03 12:52:22;;;;;;;3.35;1.00;;;17.80;76.20;;;;;;10509413;28;20051;-63
2021/10/03 12:57:22;;;;;;;6.43;1.52;;;17.80;76.50;;;;;;10497514;28;20101;-58
2021/10/03 13:02:23;;;;;;;10.43;1.33;;;17.90;76.90;;;;;;10497333;28;20427;-60
2021/10/03 13:07:23;;;;;;;9.65;1.40;;;18.10;76.50;;;;;;10488957;28;20071;-58
2021/10/03 13:12:24;;;;;;;15.50;1.77;;;18.50;75.60;;;;;;10495758;28;20074;-59
2021/10/03 13:17:25;;;;;;;10.63;1.92;;;18.90;74.50;;;;;;10497428;28;20421;-59
2021/10/03 13:22:25;;;;;;;11.32;1.77;;;19.10;73.90;;;;;;10497866;28;20524;-61
2021/10/03 13:27:26;;;;;;;7.68;1.35;;;19.50;72.80;;;;;;10497854;28;20072;-60
2021/10/03 13:32:27;;;;;;;11.00;2.13;;;19.70;72.50;;;;;;10496929;28;20138;-62
2021/10/03 13:37:28;;;;;;;15.63;2.20;;;19.70;72.80;;;;;;10496574;28;20489;-59
2021/10/03 13:42:28;;;;;;;27.08;2.78;;;19.80;72.70;;;;;;10492232;28;20169;-59
2021/10/03 13:47:29;;;;;;;11.60;2.30;;;19.80;73.00;;;;;;10497324;28;20044;-59
2021/10/03 13:52:30;;;;;;;9.50;2.05;;;19.70;74.80;;;;;;10508140;28;20035;-59
2021/10/03 13:57:30;;;;;;;15.57;2.50;;;19.50;77.10;;;;;;10495997;28;20043;-60
2021/10/03 14:02:31;;;;;;;8.35;2.30;;;19.40;78.30;;;;;;10494025;28;20468;-60
2021/10/03 14:07:32;;;;;;;8.27;2.40;;;19.30;78.60;;;;;;10489241;28;20072;-59
2021/10/03 14:12:33;;;;;;;11.73;2.25;;;19.20;78.10;;;;;;10462680;28;20104;-60
2021/10/03 14:17:34;;;;;;;9.30;2.03;;;19.10;78.00;;;;;;10495428;28;20033;-59
2021/10/03 14:22:34;;;;;;;15.82;2.30;;;19.10;78.00;;;;;;10480108;28;20032;-59
2021/10/03 14:27:35;;;;;;;8.55;1.70;;;19.00;77.90;;;;;;10472115;28;20067;-58
2021/10/03 14:32:36;;;;;;;9.93;1.92;;;18.90;77.90;;;;;;10496369;28;20552;-59
2021/10/03 14:37:37;;;;;;;7.85;1.77;;;18.80;77.90;;;;;;10495292;28;20032;-57
2021/10/03 14:42:38;;;;;;;7.88;2.00;;;18.80;77.90;;;;;;10494950;28;20170;-59
2021/10/03 14:47:39;;;;;;;8.13;2.05;;;18.80;78.20;;;;;;10495422;28;20032;-60
2021/10/03 14:52:39;;;;;;;9.32;1.50;;;18.80;77.80;;;;;;10506970;28;20477;-60
2021/10/03 14:57:41;;;;;;;9.15;1.83;;;18.80;78.00;;;;;;10496047;28;20463;-62
2021/10/03 15:02:42;;;;;;;55.90;28.75;;;18.80;77.80;;;;;;10493684;28;20068;-61
2021/10/03 15:07:42;;;;;;;21.52;8.68;;;18.80;79.50;;;;;;10494190;28;20435;-60
2021/10/03 15:12:45;;;;;;;21.80;8.13;;;18.80;79.40;;;;;;10477327;28;20024;-63
2021/10/03 15:17:46;;;;;;;17.92;6.75;;;18.80;80.00;;;;;;10514660;28;20036;-63
2021/10/03 15:22:46;;;;;;;15.75;6.07;;;18.80;80.00;;;;;;10501621;28;20444;-61
2021/10/03 15:27:50;;;;;;;15.60;4.65;;;18.80;79.70;;;;;;10501103;28;20068;-63
2021/10/03 15:32:51;;;;;;;17.25;5.40;;;18.90;79.20;;;;;;10501363;28;20485;-63
2021/10/03 15:37:52;;;;;;;18.10;5.22;;;18.90;78.70;;;;;;10501401;28;20115;-63
2021/10/03 15:42:53;;;;;;;13.35;4.97;;;19.00;79.30;;;;;;10500834;28;20024;-63
2021/10/03 15:47:53;;;;;;;11.88;4.60;;;18.90;79.60;;;;;;10484063;28;20028;-64
2021/10/03 15:52:54;;;;;;;14.02;5.03;;;19.00;79.70;;;;;;10513621;28;20032;-63
2021/10/03 15:57:55;;;;;;;14.68;5.40;;;19.00;79.40;;;;;;10500515;28;20403;-64
2021/10/03 16:02:56;;;;;;;14.90;5.63;;;19.10;79.70;;;;;;10478987;28;20108;-62
2021/10/03 16:07:57;;;;;;;17.33;4.53;;;19.10;79.90;;;;;;10492146;28;20032;-61
2021/10/03 16:12:59;;;;;;;15.60;4.80;;;19.30;78.70;;;;;;10489987;28;20120;-61
2021/10/03 16:18:00;;;;;;;14.45;5.32;;;19.40;79.80;;;;;;10494930;28;20544;-60
2021/10/03 16:23:01;;;;;;;17.67;4.45;;;19.30;79.70;;;;;;10500460;28;20115;-62
2021/10/03 16:28:01;;;;;;;12.95;5.22;;;19.30;80.50;;;;;;10500373;28;20428;-59
2021/10/03 16:33:02;;;;;;;13.93;4.65;;;19.20;80.10;;;;;;10499163;28;20051;-62
2021/10/03 16:38:03;;;;;;;14.82;4.47;;;19.10;80.10;;;;;;10499592;28;20500;-64
2021/10/03 16:43:04;;;;;;;10.57;4.32;;;19.10;79.60;;;;;;10500026;28;20035;-66
2021/10/03 16:48:05;;;;;;;12.13;5.22;;;19.10;79.90;;;;;;10500214;28;20060;-67
2021/10/03 16:53:06;;;;;;;10.25;4.30;;;19.00;79.80;;;;;;10510670;28;20032;-65
2021/10/03 16:58:07;;;;;;;8.38;3.55;;;18.90;79.90;;;;;;10499595;28;20032;-67
2021/10/03 17:03:08;;;;;;;13.82;4.45;;;18.80;79.80;;;;;;10497289;28;20028;-69
2021/10/03 17:08:08;;;;;;;15.77;4.32;;;18.80;79.70;;;;;;10497659;28;20036;-66
2021/10/03 17:13:09;;;;;;;11.32;3.63;;;18.90;79.40;;;;;;10498125;28;20111;-63
2021/10/03 17:18:10;;;;;;;14.88;4.35;;;18.80;79.40;;;;;;10496714;28;20527;-63
2021/10/03 17:23:11;;;;;;;9.93;3.78;;;18.70;79.80;;;;;;10497598;28;20024;-61
2021/10/03 17:28:11;;;;;;;17.33;4.85;;;18.70;79.90;;;;;;10498000;28;20040;-57
2021/10/03 17:33:12;;;;;;;20.58;3.90;;;18.60;79.90;;;;;;10498079;28;20065;-62
2021/10/03 17:38:13;;;;;;;22.42;3.58;;;18.60;79.80;;;;;;10478578;28;20032;-62
2021/10/03 17:43:14;;;;;;;12.88;3.30;;;18.60;79.80;;;;;;10497403;28;20047;-63
2021/10/03 17:48:14;;;;;;;10.65;3.85;;;18.60;79.50;;;;;;10497277;28;20048;-64
2021/10/03 17:53:15;;;;;;;13.32;4.93;;;18.60;79.50;;;;;;10495561;28;20037;-64
2021/10/03 17:58:16;;;;;;;11.20;4.07;;;18.60;79.60;;;;;;10494046;28;20029;-62
2021/10/03 18:03:17;;;;;;;10.82;3.50;;;18.60;79.50;;;;;;10495860;28;20099;-64
2021/10/03 18:08:18;;;;;;;14.00;6.82;;;18.60;79.50;;;;;;10494274;28;20081;-62
2021/10/03 18:13:18;;;;;;;13.07;4.80;;;18.60;79.70;;;;;;10475646;28;20346;-62
2021/10/03 18:18:19;;;;;;;9.32;4.80;;;18.60;79.90;;;;;;10496181;28;20040;-63
2021/10/03 18:23:20;;;;;;;9.80;4.18;;;18.60;79.80;;;;;;10496382;28;20091;-65
2021/10/03 18:28:21;;;;;;;12.68;4.22;;;18.70;79.70;;;;;;10493818;28;20413;-63
2021/10/03 18:33:22;;;;;;;8.70;4.40;;;18.60;79.60;;;;;;10494097;28;20049;-62
2021/10/03 18:38:22;;;;;;;10.20;4.65;;;18.60;79.40;;;;;;10495843;28;20422;-63
2021/10/03 18:43:23;;;;;;;14.90;5.13;;;18.60;79.50;;;;;;10495738;28;20032;-63
2021/10/03 18:48:23;;;;;;;9.73;4.43;;;18.70;79.20;;;;;;10482888;28;20056;-63
2021/10/03 18:53:24;;;;;;;10.60;4.78;;;18.70;79.00;;;;;;10509919;28;20083;-63
2021/10/03 18:58:25;;;;;;;11.45;4.30;;;18.70;79.10;;;;;;10502700;28;20043;-58
2021/10/03 19:03:26;;;;;;;11.68;4.03;;;18.60;79.00;;;;;;10482474;28;20037;-64
2021/10/03 19:08:26;;;;;;;7.22;3.67;;;18.60;78.90;;;;;;10499514;28;20075;-64
2021/10/03 19:13:28;;;;;;;9.43;3.28;;;18.60;78.80;;;;;;10480543;28;20056;-64
2021/10/03 19:18:29;;;;;;;9.35;3.67;;;18.60;78.70;;;;;;10498331;28;20093;-64
2021/10/03 19:23:31;;;;;;;10.00;3.60;;;18.60;78.70;;;;;;10501317;28;20055;-65
2021/10/03 19:28:33;;;;;;;7.57;3.40;;;18.60;78.70;;;;;;10502239;28;20480;-64
2021/10/03 19:33:34;;;;;;;7.97;3.05;;;18.70;78.30;;;;;;10502100;28;20056;-66
2021/10/03 19:38:35;;;;;;;7.15;3.17;;;18.70;77.90;;;;;;10501710;28;20032;-67
2021/10/03 19:43:36;;;;;;;10.02;2.65;;;18.80;77.70;;;;;;10501474;28;20476;-66
2021/10/03 19:48:36;;;;;;;6.47;3.40;;;18.90;77.10;;;;;;10503752;28;20024;-65
2021/10/03 19:53:37;;;;;;;8.00;3.10;;;18.90;77.00;;;;;;10508688;28;20021;-64
2021/10/03 19:58:38;;;;;;;5.43;2.20;;;18.90;77.00;;;;;;10514049;28;20040;-64
2021/10/03 20:03:38;;;;;;;5.00;3.13;;;18.90;77.10;;;;;;10490668;28;20112;-64
2021/10/03 20:08:40;;;;;;;7.72;2.88;;;18.90;76.70;;;;;;10499351;28;20037;-66
2021/10/03 20:13:41;;;;;;;4.28;2.60;;;18.90;76.60;;;;;;10500512;28;20477;-64
2021/10/03 20:18:43;;;;;;;5.18;2.00;;;19.00;76.60;;;;;;10501642;28;20028;-67
2021/10/03 20:23:43;;;;;;;5.47;2.42;;;19.00;76.40;;;;;;10474568;28;20036;-65
2021/10/03 20:28:44;;;;;;;5.93;2.70;;;19.00;76.30;;;;;;10500565;28;20389;-64
2021/10/03 20:33:45;;;;;;;4.78;2.72;;;19.00;76.30;;;;;;10499195;28;20385;-67
2021/10/03 20:38:46;;;;;;;6.30;2.47;;;18.90;76.30;;;;;;10500218;28;20051;-66
2021/10/03 20:43:46;;;;;;;3.33;1.80;;;18.90;76.60;;;;;;10500470;28;20032;-65
2021/10/03 20:48:47;;;;;;;5.43;2.13;;;19.00;76.90;;;;;;10507490;28;20060;-67
2021/10/03 20:53:48;;;;;;;8.18;2.50;;;18.90;76.10;;;;;;10504101;28;20081;-64
2021/10/03 20:58:49;;;;;;;4.80;1.80;;;18.90;76.30;;;;;;10499861;28;20024;-65
2021/10/03 21:03:50;;;;;;;5.03;2.03;;;18.90;76.50;;;;;;10499365;28;20644;-65
2021/10/03 21:08:51;;;;;;;4.55;1.73;;;18.90;76.30;;;;;;10482317;28;20060;-64
2021/10/03 21:13:52;;;;;;;7.85;2.00;;;18.90;76.10;;;;;;10496787;28;20099;-65
2021/10/03 21:18:52;;;;;;;3.58;1.98;;;18.90;76.20;;;;;;10497454;28;20119;-65
2021/10/03 21:23:53;;;;;;;4.88;2.20;;;18.80;76.30;;;;;;10498169;28;20052;-64
2021/10/03 21:28:57;;;;;;;3.60;1.65;;;18.80;76.30;;;;;;10474254;28;20032;-64
2021/10/03 21:33:57;;;;;;;4.63;1.90;;;18.90;76.00;;;;;;10498060;28;20051;-65
2021/10/03 21:38:58;;;;;;;3.20;1.58;;;18.90;75.90;;;;;;10497721;28;20500;-65
2021/10/03 21:43:59;;;;;;;3.70;1.80;;;18.90;75.90;;;;;;10496442;28;20154;-65
2021/10/03 21:49:01;;;;;;;5.05;1.83;;;18.90;76.10;;;;;;10505560;28;20044;-64
2021/10/03 21:54:02;;;;;;;4.25;1.45;;;18.80;76.20;;;;;;10498670;28;20132;-64
2021/10/03 21:59:03;;;;;;;4.28;1.90;;;18.80;76.10;;;;;;10479249;28;20028;-64
2021/10/03 22:04:04;;;;;;;3.38;1.52;;;18.90;75.60;;;;;;10486313;28;20416;-64
2021/10/03 22:09:05;;;;;;;4.53;2.30;;;19.00;75.60;;;;;;10495853;28;20098;-65
2021/10/03 22:14:06;;;;;;;4.13;1.90;;;19.00;75.50;;;;;;10495819;28;20054;-65
2021/10/03 22:19:06;;;;;;;3.00;1.50;;;18.90;76.20;;;;;;10495462;28;20066;-65
2021/10/03 22:24:07;;;;;;;7.38;1.23;;;18.90;75.60;;;;;;10495061;28;20052;-65
2021/10/03 22:29:08;;;;;;;2.78;1.25;;;18.90;75.40;;;;;;10495177;28;20389;-65
2021/10/03 22:34:09;;;;;;;3.63;1.77;;;18.90;75.50;;;;;;10496074;28;20041;-65
2021/10/03 22:39:10;;;;;;;2.78;1.13;;;18.90;75.60;;;;;;10494843;28;20029;-66
2021/10/03 22:44:10;;;;;;;4.18;1.52;;;18.90;75.40;;;;;;10495864;28;20041;-65
2021/10/03 22:49:14;;;;;;;3.72;1.50;;;18.90;75.30;;;;;;10505784;28;20112;-65
2021/10/03 22:54:15;;;;;;;3.90;1.77;;;18.90;75.30;;;;;;10496625;28;20036;-65
2021/10/03 22:59:15;;;;;;;3.08;1.42;;;18.90;75.30;;;;;;10494258;28;20055;-64
2021/10/03 23:04:16;;;;;;;2.20;1.08;;;18.90;75.20;;;;;;10494575;28;20524;-65
2021/10/03 23:09:17;;;;;;;7.80;1.80;;;18.90;75.20;;;;;;10493880;28;20033;-64
2021/10/03 23:14:18;;;;;;;2.72;1.23;;;18.90;75.30;;;;;;10494423;28;20040;-65
2021/10/03 23:19:18;;;;;;;2.30;1.33;;;18.90;75.00;;;;;;10495516;28;20107;-65
2021/10/03 23:24:20;;;;;;;3.30;1.58;;;18.90;74.90;;;;;;10495372;28;20130;-65
2021/10/03 23:29:21;;;;;;;2.55;1.20;;;18.90;75.00;;;;;;10493888;28;20107;-65
2021/10/03 23:34:22;;;;;;;2.38;1.17;;;18.90;75.00;;;;;;10493778;28;20051;-65
2021/10/03 23:39:23;;;;;;;2.80;1.30;;;19.00;75.00;;;;;;10499815;28;20165;-65
2021/10/03 23:44:24;;;;;;;3.17;1.15;;;18.90;74.90;;;;;;10501467;28;20397;-65
2021/10/03 23:49:25;;;;;;;2.15;1.25;;;18.90;74.90;;;;;;10492123;28;20029;-65
2021/10/03 23:54:25;;;;;;;2.28;0.88;;;18.90;74.90;;;;;;10502045;28;20039;-65
2021/10/03 23:59:26;;;;;;;2.17;0.85;;;19.00;74.70;;;;;;10483922;28;20111;-65
